sensor_id;sensor_type;location;lat;lon;timestamp;P1;durP1;ratioP1;P2;durP2;ratioP2
74495;SDS011;62979;55.720;37.606;2023-02-12T00:01:06;6.22;;;3.13;;
74495;SDS011;62979;55.720;37.606;2023-02-12T00:03:35;7.03;;;2.10;;
74495;SDS011;62979;55.720;37.606;2023-02-12T00:06:02;5.72;;;2.00;;
74495;SDS011;62979;55.720;37.606;2023-02-12T00:08:30;3.70;;;2.03;;
74495;SDS011;62979;55.720;37.606;2023-02-12T00:10:57;2.78;;;2.05;;
74495;SDS011;62979;55.720;37.606;2023-02-12T00:13:24;3.05;;;2.08;;
74495;SDS011;62979;55.720;37.606;2023-02-12T00:15:52;4.13;;;2.35;;
74495;SDS011;62979;55.720;37.606;2023-02-12T00:18:19;2.65;;;1.67;;
74495;SDS011;62979;55.720;37.606;2023-02-12T00:20:46;3.38;;;2.08;;
74495;SDS011;62979;55.720;37.606;2023-02-12T00:23:13;2.97;;;1.75;;
74495;SDS011;62979;55.720;37.606;2023-02-12T00:25:40;2.60;;;1.42;;
74495;SDS011;62979;55.720;37.606;2023-02-12T00:28:08;2.83;;;1.00;;
74495;SDS011;62979;55.720;37.606;2023-02-12T00:30:35;1.73;;;1.45;;
74495;SDS011;62979;55.720;37.606;2023-02-12T00:33:03;1.33;;;1.10;;
74495;SDS011;62979;55.720;37.606;2023-02-12T00:35:30;4.43;;;1.48;;
74495;SDS011;62979;55.720;37.606;2023-02-12T00:37:57;3.33;;;2.15;;
74495;SDS011;62979;55.720;37.606;2023-02-12T00:40:24;4.57;;;2.17;;
74495;SDS011;62979;55.720;37.606;2023-02-12T00:42:51;2.50;;;1.52;;
74495;SDS011;62979;55.720;37.606;2023-02-12T00:45:18;1.67;;;1.17;;
74495;SDS011;62979;55.720;37.606;2023-02-12T00:47:45;1.70;;;1.15;;
74495;SDS011;62979;55.720;37.606;2023-02-12T00:52:42;2.22;;;1.35;;
74495;SDS011;62979;55.720;37.606;2023-02-12T00:55:09;4.88;;;2.40;;
74495;SDS011;62979;55.720;37.606;2023-02-12T00:57:36;2.95;;;1.95;;
74495;SDS011;62979;55.720;37.606;2023-02-12T01:00:03;3.65;;;1.58;;
74495;SDS011;62979;55.720;37.606;2023-02-12T01:02:31;4.80;;;2.28;;
74495;SDS011;62979;55.720;37.606;2023-02-12T01:04:58;3.30;;;1.73;;
74495;SDS011;62979;55.720;37.606;2023-02-12T01:07:27;4.75;;;2.45;;
74495;SDS011;62979;55.720;37.606;2023-02-12T01:09:54;3.63;;;2.22;;
74495;SDS011;62979;55.720;37.606;2023-02-12T01:12:20;4.10;;;2.42;;
74495;SDS011;62979;55.720;37.606;2023-02-12T01:14:47;2.63;;;1.83;;
74495;SDS011;62979;55.720;37.606;2023-02-12T01:17:14;4.30;;;2.30;;
74495;SDS011;62979;55.720;37.606;2023-02-12T01:19:41;2.72;;;1.45;;
74495;SDS011;62979;55.720;37.606;2023-02-12T01:22:08;4.22;;;2.25;;
74495;SDS011;62979;55.720;37.606;2023-02-12T01:24:36;5.00;;;2.40;;
74495;SDS011;62979;55.720;37.606;2023-02-12T01:27:03;9.32;;;3.83;;
74495;SDS011;62979;55.720;37.606;2023-02-12T01:29:30;3.30;;;2.22;;
74495;SDS011;62979;55.720;37.606;2023-02-12T01:31:57;3.47;;;1.88;;
74495;SDS011;62979;55.720;37.606;2023-02-12T01:34:24;4.03;;;2.40;;
74495;SDS011;62979;55.720;37.606;2023-02-12T01:36:50;3.88;;;1.73;;
74495;SDS011;62979;55.720;37.606;2023-02-12T01:39:17;5.13;;;2.58;;
74495;SDS011;62979;55.720;37.606;2023-02-12T01:41:46;4.47;;;1.50;;
74495;SDS011;62979;55.720;37.606;2023-02-12T01:44:14;3.80;;;1.83;;
74495;SDS011;62979;55.720;37.606;2023-02-12T01:46:45;2.05;;;1.48;;
74495;SDS011;62979;55.720;37.606;2023-02-12T01:49:16;5.22;;;2.72;;
74495;SDS011;62979;55.720;37.606;2023-02-12T01:51:49;3.58;;;1.45;;
74495;SDS011;62979;55.720;37.606;2023-02-12T01:54:20;5.15;;;2.33;;
74495;SDS011;62979;55.720;37.606;2023-02-12T01:56:52;4.03;;;2.22;;
74495;SDS011;62979;55.720;37.606;2023-02-12T01:59:20;4.07;;;1.90;;
74495;SDS011;62979;55.720;37.606;2023-02-12T02:04:16;2.17;;;1.55;;
74495;SDS011;62979;55.720;37.606;2023-02-12T02:06:51;3.70;;;1.90;;
74495;SDS011;62979;55.720;37.606;2023-02-12T02:09:22;8.40;;;1.50;;
74495;SDS011;62979;55.720;37.606;2023-02-12T02:14:37;4.93;;;2.45;;
74495;SDS011;62979;55.720;37.606;2023-02-12T02:17:15;3.65;;;0.95;;
74495;SDS011;62979;55.720;37.606;2023-02-12T02:20:08;2.80;;;1.67;;
74495;SDS011;62979;55.720;37.606;2023-02-12T02:23:33;2.28;;;1.67;;
74495;SDS011;62979;55.720;37.606;2023-02-12T02:32:54;2.28;;;1.23;;
74495;SDS011;62979;55.720;37.606;2023-02-12T02:35:37;2.55;;;1.25;;
74495;SDS011;62979;55.720;37.606;2023-02-12T02:38:15;2.00;;;1.02;;
74495;SDS011;62979;55.720;37.606;2023-02-12T02:40:53;2.38;;;1.42;;
74495;SDS011;62979;55.720;37.606;2023-02-12T02:43:30;4.70;;;1.27;;
74495;SDS011;62979;55.720;37.606;2023-02-12T02:46:06;2.05;;;1.00;;
74495;SDS011;62979;55.720;37.606;2023-02-12T02:48:37;2.65;;;1.65;;
74495;SDS011;62979;55.720;37.606;2023-02-12T02:51:12;2.90;;;1.40;;
74495;SDS011;62979;55.720;37.606;2023-02-12T02:53:46;2.95;;;1.42;;
74495;SDS011;62979;55.720;37.606;2023-02-12T02:56:19;3.28;;;1.67;;
74495;SDS011;62979;55.720;37.606;2023-02-12T02:58:50;4.32;;;1.25;;
74495;SDS011;62979;55.720;37.606;2023-02-12T03:01:25;3.10;;;1.80;;
74495;SDS011;62979;55.720;37.606;2023-02-12T03:04:01;8.88;;;1.98;;
74495;SDS011;62979;55.720;37.606;2023-02-12T03:06:33;4.18;;;1.95;;
74495;SDS011;62979;55.720;37.606;2023-02-12T03:09:11;1.58;;;0.90;;
74495;SDS011;62979;55.720;37.606;2023-02-12T03:11:44;2.75;;;1.30;;
74495;SDS011;62979;55.720;37.606;2023-02-12T03:14:13;5.53;;;2.42;;
74495;SDS011;62979;55.720;37.606;2023-02-12T03:16:49;6.32;;;2.42;;
74495;SDS011;62979;55.720;37.606;2023-02-12T03:19:24;2.60;;;1.63;;
74495;SDS011;62979;55.720;37.606;2023-02-12T03:21:57;3.97;;;1.55;;
74495;SDS011;62979;55.720;37.606;2023-02-12T03:24:30;8.10;;;2.20;;
74495;SDS011;62979;55.720;37.606;2023-02-12T03:27:03;4.13;;;1.70;;
74495;SDS011;62979;55.720;37.606;2023-02-12T03:29:36;4.10;;;2.05;;
74495;SDS011;62979;55.720;37.606;2023-02-12T03:32:08;6.47;;;2.15;;
74495;SDS011;62979;55.720;37.606;2023-02-12T03:34:51;3.40;;;1.60;;
74495;SDS011;62979;55.720;37.606;2023-02-12T03:37:34;1.27;;;0.88;;
74495;SDS011;62979;55.720;37.606;2023-02-12T03:40:06;2.80;;;1.15;;
74495;SDS011;62979;55.720;37.606;2023-02-12T03:42:46;3.00;;;1.83;;
74495;SDS011;62979;55.720;37.606;2023-02-12T03:45:26;2.38;;;1.23;;
74495;SDS011;62979;55.720;37.606;2023-02-12T03:48:11;3.63;;;1.83;;
74495;SDS011;62979;55.720;37.606;2023-02-12T03:50:49;4.20;;;1.30;;
74495;SDS011;62979;55.720;37.606;2023-02-12T03:53:22;3.08;;;1.30;;
74495;SDS011;62979;55.720;37.606;2023-02-12T03:55:52;2.75;;;1.30;;
74495;SDS011;62979;55.720;37.606;2023-02-12T03:58:29;3.88;;;1.38;;
74495;SDS011;62979;55.720;37.606;2023-02-12T04:01:00;2.83;;;1.00;;
74495;SDS011;62979;55.720;37.606;2023-02-12T04:03:30;4.30;;;1.55;;
74495;SDS011;62979;55.720;37.606;2023-02-12T04:05:57;2.95;;;1.13;;
74495;SDS011;62979;55.720;37.606;2023-02-12T04:08:24;3.35;;;1.20;;
74495;SDS011;62979;55.720;37.606;2023-02-12T04:10:55;6.25;;;1.02;;
74495;SDS011;62979;55.720;37.606;2023-02-12T04:13:39;2.97;;;1.08;;
74495;SDS011;62979;55.720;37.606;2023-02-12T04:16:17;3.42;;;1.50;;
74495;SDS011;62979;55.720;37.606;2023-02-12T04:18:56;3.15;;;1.00;;
74495;SDS011;62979;55.720;37.606;2023-02-12T04:21:29;2.30;;;0.73;;
74495;SDS011;62979;55.720;37.606;2023-02-12T04:24:15;5.40;;;1.65;;
74495;SDS011;62979;55.720;37.606;2023-02-12T04:26:53;1.88;;;0.77;;
74495;SDS011;62979;55.720;37.606;2023-02-12T04:29:28;2.83;;;1.33;;
74495;SDS011;62979;55.720;37.606;2023-02-12T04:32:09;3.83;;;1.08;;
74495;SDS011;62979;55.720;37.606;2023-02-12T04:34:47;2.40;;;1.17;;
74495;SDS011;62979;55.720;37.606;2023-02-12T04:37:23;2.92;;;2.53;;
74495;SDS011;62979;55.720;37.606;2023-02-12T04:39:59;5.00;;;1.00;;
74495;SDS011;62979;55.720;37.606;2023-02-12T04:42:33;3.83;;;0.98;;
74495;SDS011;62979;55.720;37.606;2023-02-12T04:45:08;5.03;;;0.90;;
74495;SDS011;62979;55.720;37.606;2023-02-12T04:47:36;2.95;;;0.85;;
74495;SDS011;62979;55.720;37.606;2023-02-12T04:50:05;2.88;;;1.63;;
74495;SDS011;62979;55.720;37.606;2023-02-12T04:52:34;1.83;;;0.73;;
74495;SDS011;62979;55.720;37.606;2023-02-12T04:55:01;2.47;;;1.00;;
74495;SDS011;62979;55.720;37.606;2023-02-12T04:57:28;4.05;;;1.65;;
74495;SDS011;62979;55.720;37.606;2023-02-12T04:59:54;4.38;;;1.23;;
74495;SDS011;62979;55.720;37.606;2023-02-12T05:02:21;5.22;;;1.25;;
74495;SDS011;62979;55.720;37.606;2023-02-12T05:04:48;4.38;;;0.57;;
74495;SDS011;62979;55.720;37.606;2023-02-12T05:07:17;2.65;;;1.35;;
74495;SDS011;62979;55.720;37.606;2023-02-12T05:09:44;0.75;;;0.43;;
74495;SDS011;62979;55.720;37.606;2023-02-12T05:12:11;0.70;;;0.50;;
74495;SDS011;62979;55.720;37.606;2023-02-12T05:14:38;2.00;;;0.40;;
74495;SDS011;62979;55.720;37.606;2023-02-12T05:17:04;2.30;;;0.93;;
74495;SDS011;62979;55.720;37.606;2023-02-12T05:19:31;2.70;;;1.02;;
74495;SDS011;62979;55.720;37.606;2023-02-12T05:21:58;1.58;;;0.60;;
74495;SDS011;62979;55.720;37.606;2023-02-12T05:24:27;4.30;;;1.80;;
74495;SDS011;62979;55.720;37.606;2023-02-12T05:26:54;0.73;;;0.22;;
74495;SDS011;62979;55.720;37.606;2023-02-12T05:29:20;2.78;;;0.80;;
74495;SDS011;62979;55.720;37.606;2023-02-12T05:31:47;0.52;;;0.17;;
74495;SDS011;62979;55.720;37.606;2023-02-12T05:34:14;0.93;;;0.43;;
74495;SDS011;62979;55.720;37.606;2023-02-12T05:36:41;1.15;;;0.52;;
74495;SDS011;62979;55.720;37.606;2023-02-12T05:39:09;1.05;;;0.35;;
74495;SDS011;62979;55.720;37.606;2023-02-12T05:41:37;1.85;;;0.68;;
74495;SDS011;62979;55.720;37.606;2023-02-12T05:44:04;0.73;;;0.35;;
74495;SDS011;62979;55.720;37.606;2023-02-12T05:46:32;2.42;;;0.60;;
74495;SDS011;62979;55.720;37.606;2023-02-12T05:48:59;0.85;;;0.22;;
74495;SDS011;62979;55.720;37.606;2023-02-12T05:51:26;1.15;;;0.25;;
74495;SDS011;62979;55.720;37.606;2023-02-12T05:53:56;3.08;;;0.95;;
74495;SDS011;62979;55.720;37.606;2023-02-12T05:56:26;1.27;;;0.43;;
74495;SDS011;62979;55.720;37.606;2023-02-12T05:58:57;5.35;;;0.40;;
74495;SDS011;62979;55.720;37.606;2023-02-12T06:01:28;3.45;;;0.45;;
74495;SDS011;62979;55.720;37.606;2023-02-12T06:03:58;1.05;;;0.60;;
74495;SDS011;62979;55.720;37.606;2023-02-12T06:06:26;1.52;;;0.35;;
74495;SDS011;62979;55.720;37.606;2023-02-12T06:08:55;1.42;;;0.90;;
74495;SDS011;62979;55.720;37.606;2023-02-12T06:11:22;3.53;;;0.60;;
74495;SDS011;62979;55.720;37.606;2023-02-12T06:13:50;0.65;;;0.32;;
74495;SDS011;62979;55.720;37.606;2023-02-12T06:16:19;1.65;;;0.20;;
74495;SDS011;62979;55.720;37.606;2023-02-12T06:18:48;2.92;;;0.68;;
74495;SDS011;62979;55.720;37.606;2023-02-12T06:21:16;2.08;;;0.38;;
74495;SDS011;62979;55.720;37.606;2023-02-12T06:23:45;1.73;;;0.43;;
74495;SDS011;62979;55.720;37.606;2023-02-12T06:26:13;1.88;;;0.40;;
74495;SDS011;62979;55.720;37.606;2023-02-12T06:28:40;4.70;;;0.73;;
74495;SDS011;62979;55.720;37.606;2023-02-12T06:31:14;0.95;;;0.80;;
74495;SDS011;62979;55.720;37.606;2023-02-12T06:33:46;4.65;;;0.68;;
74495;SDS011;62979;55.720;37.606;2023-02-12T06:36:14;1.50;;;0.55;;
74495;SDS011;62979;55.720;37.606;2023-02-12T06:38:41;2.05;;;0.60;;
74495;SDS011;62979;55.720;37.606;2023-02-12T06:41:08;0.85;;;0.70;;
74495;SDS011;62979;55.720;37.606;2023-02-12T06:43:36;1.45;;;0.28;;
74495;SDS011;62979;55.720;37.606;2023-02-12T06:46:03;2.42;;;0.90;;
74495;SDS011;62979;55.720;37.606;2023-02-12T06:48:33;1.90;;;0.57;;
74495;SDS011;62979;55.720;37.606;2023-02-12T06:51:04;2.03;;;0.70;;
74495;SDS011;62979;55.720;37.606;2023-02-12T06:53:33;0.55;;;0.55;;
74495;SDS011;62979;55.720;37.606;2023-02-12T06:56:00;2.50;;;0.63;;
74495;SDS011;62979;55.720;37.606;2023-02-12T06:58:28;0.55;;;0.40;;
74495;SDS011;62979;55.720;37.606;2023-02-12T07:00:55;1.92;;;0.57;;
74495;SDS011;62979;55.720;37.606;2023-02-12T07:03:22;0.32;;;0.20;;
74495;SDS011;62979;55.720;37.606;2023-02-12T07:05:50;3.38;;;0.35;;
74495;SDS011;62979;55.720;37.606;2023-02-12T07:08:17;1.20;;;0.40;;
74495;SDS011;62979;55.720;37.606;2023-02-12T07:10:47;2.72;;;0.65;;
74495;SDS011;62979;55.720;37.606;2023-02-12T07:13:15;0.40;;;0.38;;
74495;SDS011;62979;55.720;37.606;2023-02-12T07:15:42;2.67;;;0.80;;
74495;SDS011;62979;55.720;37.606;2023-02-12T07:18:08;2.45;;;0.60;;
74495;SDS011;62979;55.720;37.606;2023-02-12T07:20:35;3.80;;;1.15;;
74495;SDS011;62979;55.720;37.606;2023-02-12T07:23:04;2.40;;;0.77;;
74495;SDS011;62979;55.720;37.606;2023-02-12T07:25:31;3.55;;;1.25;;
74495;SDS011;62979;55.720;37.606;2023-02-12T07:27:58;3.63;;;1.23;;
74495;SDS011;62979;55.720;37.606;2023-02-12T07:30:25;2.13;;;0.50;;
74495;SDS011;62979;55.720;37.606;2023-02-12T07:32:52;1.13;;;0.90;;
74495;SDS011;62979;55.720;37.606;2023-02-12T07:35:18;4.78;;;0.95;;
74495;SDS011;62979;55.720;37.606;2023-02-12T07:37:45;3.65;;;1.00;;
74495;SDS011;62979;55.720;37.606;2023-02-12T07:40:14;6.68;;;1.63;;
74495;SDS011;62979;55.720;37.606;2023-02-12T07:42:41;1.58;;;0.82;;
74495;SDS011;62979;55.720;37.606;2023-02-12T07:45:08;1.77;;;0.57;;
74495;SDS011;62979;55.720;37.606;2023-02-12T07:47:35;1.35;;;0.30;;
74495;SDS011;62979;55.720;37.606;2023-02-12T07:50:03;0.77;;;0.30;;
74495;SDS011;62979;55.720;37.606;2023-02-12T07:52:32;2.00;;;1.15;;
74495;SDS011;62979;55.720;37.606;2023-02-12T07:54:59;1.63;;;0.52;;
74495;SDS011;62979;55.720;37.606;2023-02-12T07:57:27;3.20;;;0.98;;
74495;SDS011;62979;55.720;37.606;2023-02-12T08:02:21;1.55;;;0.40;;
74495;SDS011;62979;55.720;37.606;2023-02-12T08:04:53;0.47;;;0.40;;
74495;SDS011;62979;55.720;37.606;2023-02-12T08:07:21;1.88;;;0.65;;
74495;SDS011;62979;55.720;37.606;2023-02-12T08:09:48;3.30;;;0.50;;
74495;SDS011;62979;55.720;37.606;2023-02-12T08:12:15;1.63;;;0.43;;
74495;SDS011;62979;55.720;37.606;2023-02-12T08:14:45;1.67;;;0.60;;
74495;SDS011;62979;55.720;37.606;2023-02-12T08:17:12;0.93;;;0.47;;
74495;SDS011;62979;55.720;37.606;2023-02-12T08:19:38;0.52;;;0.43;;
74495;SDS011;62979;55.720;37.606;2023-02-12T08:22:05;0.30;;;0.30;;
74495;SDS011;62979;55.720;37.606;2023-02-12T08:24:32;2.78;;;1.08;;
74495;SDS011;62979;55.720;37.606;2023-02-12T08:26:59;4.15;;;0.95;;
74495;SDS011;62979;55.720;37.606;2023-02-12T08:29:27;1.85;;;0.40;;
74495;SDS011;62979;55.720;37.606;2023-02-12T08:31:57;2.70;;;1.02;;
74495;SDS011;62979;55.720;37.606;2023-02-12T08:34:26;2.13;;;0.45;;
74495;SDS011;62979;55.720;37.606;2023-02-12T08:36:55;4.72;;;0.45;;
74495;SDS011;62979;55.720;37.606;2023-02-12T08:41:53;2.13;;;0.17;;
74495;SDS011;62979;55.720;37.606;2023-02-12T08:44:20;0.70;;;0.43;;
74495;SDS011;62979;55.720;37.606;2023-02-12T08:46:48;0.80;;;0.45;;
74495;SDS011;62979;55.720;37.606;2023-02-12T08:49:19;2.50;;;0.77;;
74495;SDS011;62979;55.720;37.606;2023-02-12T08:51:49;2.83;;;1.20;;
74495;SDS011;62979;55.720;37.606;2023-02-12T08:54:19;2.00;;;1.15;;
74495;SDS011;62979;55.720;37.606;2023-02-12T08:56:49;0.65;;;0.65;;
74495;SDS011;62979;55.720;37.606;2023-02-12T08:59:20;1.17;;;0.28;;
74495;SDS011;62979;55.720;37.606;2023-02-12T09:01:48;1.00;;;1.00;;
74495;SDS011;62979;55.720;37.606;2023-02-12T09:04:20;1.75;;;0.47;;
74495;SDS011;62979;55.720;37.606;2023-02-12T09:06:50;2.40;;;0.45;;
74495;SDS011;62979;55.720;37.606;2023-02-12T09:09:17;0.77;;;0.32;;
74495;SDS011;62979;55.720;37.606;2023-02-12T09:11:45;0.60;;;0.43;;
74495;SDS011;62979;55.720;37.606;2023-02-12T09:14:14;1.13;;;0.25;;
74495;SDS011;62979;55.720;37.606;2023-02-12T09:16:47;0.20;;;0.13;;
74495;SDS011;62979;55.720;37.606;2023-02-12T09:19:16;0.20;;;0.20;;
74495;SDS011;62979;55.720;37.606;2023-02-12T09:21:48;2.20;;;0.32;;
74495;SDS011;62979;55.720;37.606;2023-02-12T09:24:17;0.82;;;0.43;;
74495;SDS011;62979;55.720;37.606;2023-02-12T09:26:44;1.58;;;0.57;;
74495;SDS011;62979;55.720;37.606;2023-02-12T09:29:11;2.45;;;0.55;;
74495;SDS011;62979;55.720;37.606;2023-02-12T09:31:38;2.25;;;0.38;;
74495;SDS011;62979;55.720;37.606;2023-02-12T09:34:05;1.38;;;0.40;;
74495;SDS011;62979;55.720;37.606;2023-02-12T09:36:34;3.60;;;0.47;;
74495;SDS011;62979;55.720;37.606;2023-02-12T09:41:37;1.42;;;0.63;;
74495;SDS011;62979;55.720;37.606;2023-02-12T09:44:28;1.73;;;0.35;;
74495;SDS011;62979;55.720;37.606;2023-02-12T09:47:10;0.73;;;0.30;;
74495;SDS011;62979;55.720;37.606;2023-02-12T09:49:55;0.45;;;0.45;;
74495;SDS011;62979;55.720;37.606;2023-02-12T09:52:40;1.13;;;0.50;;
74495;SDS011;62979;55.720;37.606;2023-02-12T09:55:09;2.53;;;0.50;;
74495;SDS011;62979;55.720;37.606;2023-02-12T09:57:41;0.47;;;0.47;;
74495;SDS011;62979;55.720;37.606;2023-02-12T10:00:12;0.93;;;0.35;;
74495;SDS011;62979;55.720;37.606;2023-02-12T10:02:44;2.28;;;0.55;;
74495;SDS011;62979;55.720;37.606;2023-02-12T10:05:13;1.65;;;0.43;;
74495;SDS011;62979;55.720;37.606;2023-02-12T10:07:55;1.25;;;0.68;;
74495;SDS011;62979;55.720;37.606;2023-02-12T10:10:40;0.38;;;0.38;;
74495;SDS011;62979;55.720;37.606;2023-02-12T10:13:17;3.53;;;0.60;;
74495;SDS011;62979;55.720;37.606;2023-02-12T10:16:03;1.77;;;0.85;;
74495;SDS011;62979;55.720;37.606;2023-02-12T10:18:52;0.63;;;0.25;;
74495;SDS011;62979;55.720;37.606;2023-02-12T10:21:46;1.25;;;0.22;;
74495;SDS011;62979;55.720;37.606;2023-02-12T10:24:42;1.15;;;0.57;;
74495;SDS011;62979;55.720;37.606;2023-02-12T10:27:30;1.55;;;0.57;;
74495;SDS011;62979;55.720;37.606;2023-02-12T10:30:12;0.93;;;0.68;;
74495;SDS011;62979;55.720;37.606;2023-02-12T10:32:45;0.60;;;0.60;;
74495;SDS011;62979;55.720;37.606;2023-02-12T10:35:17;2.08;;;0.47;;
74495;SDS011;62979;55.720;37.606;2023-02-12T10:37:48;2.90;;;1.60;;
74495;SDS011;62979;55.720;37.606;2023-02-12T10:40:24;1.23;;;0.93;;
74495;SDS011;62979;55.720;37.606;2023-02-12T10:42:58;0.80;;;0.47;;
74495;SDS011;62979;55.720;37.606;2023-02-12T10:45:29;1.48;;;0.30;;
74495;SDS011;62979;55.720;37.606;2023-02-12T10:48:03;0.95;;;0.32;;
74495;SDS011;62979;55.720;37.606;2023-02-12T10:50:44;3.70;;;0.68;;
74495;SDS011;62979;55.720;37.606;2023-02-12T10:53:29;1.65;;;0.98;;
74495;SDS011;62979;55.720;37.606;2023-02-12T10:56:11;1.00;;;0.90;;
74495;SDS011;62979;55.720;37.606;2023-02-12T10:58:50;0.93;;;0.25;;
74495;SDS011;62979;55.720;37.606;2023-02-12T11:01:22;1.55;;;0.60;;
74495;SDS011;62979;55.720;37.606;2023-02-12T11:03:54;0.85;;;0.68;;
74495;SDS011;62979;55.720;37.606;2023-02-12T11:06:24;2.22;;;0.55;;
74495;SDS011;62979;55.720;37.606;2023-02-12T11:08:54;0.85;;;0.77;;
74495;SDS011;62979;55.720;37.606;2023-02-12T11:11:23;1.08;;;0.30;;
74495;SDS011;62979;55.720;37.606;2023-02-12T11:13:55;1.00;;;0.43;;
74495;SDS011;62979;55.720;37.606;2023-02-12T11:16:28;1.10;;;0.47;;
74495;SDS011;62979;55.720;37.606;2023-02-12T11:18:58;2.22;;;0.77;;
74495;SDS011;62979;55.720;37.606;2023-02-12T11:21:28;3.65;;;0.68;;
74495;SDS011;62979;55.720;37.606;2023-02-12T11:23:57;0.88;;;0.77;;
74495;SDS011;62979;55.720;37.606;2023-02-12T11:27:00;1.85;;;0.43;;
74495;SDS011;62979;55.720;37.606;2023-02-12T11:29:46;2.83;;;0.90;;
74495;SDS011;62979;55.720;37.606;2023-02-12T11:32:38;22.90;;;1.08;;
74495;SDS011;62979;55.720;37.606;2023-02-12T11:35:09;1.90;;;0.45;;
74495;SDS011;62979;55.720;37.606;2023-02-12T11:37:42;1.58;;;0.40;;
74495;SDS011;62979;55.720;37.606;2023-02-12T11:40:16;2.50;;;1.08;;
74495;SDS011;62979;55.720;37.606;2023-02-12T11:42:50;2.42;;;0.68;;
74495;SDS011;62979;55.720;37.606;2023-02-12T11:45:21;2.63;;;0.82;;
74495;SDS011;62979;55.720;37.606;2023-02-12T11:47:57;1.60;;;0.70;;
74495;SDS011;62979;55.720;37.606;2023-02-12T11:50:28;1.70;;;0.75;;
74495;SDS011;62979;55.720;37.606;2023-02-12T11:52:58;1.15;;;0.60;;
74495;SDS011;62979;55.720;37.606;2023-02-12T11:55:33;2.45;;;0.73;;
74495;SDS011;62979;55.720;37.606;2023-02-12T11:58:12;1.00;;;0.73;;
74495;SDS011;62979;55.720;37.606;2023-02-12T12:00:43;2.58;;;0.50;;
74495;SDS011;62979;55.720;37.606;2023-02-12T12:03:17;2.92;;;0.95;;
74495;SDS011;62979;55.720;37.606;2023-02-12T12:05:51;3.28;;;0.63;;
74495;SDS011;62979;55.720;37.606;2023-02-12T12:08:24;1.50;;;0.73;;
74495;SDS011;62979;55.720;37.606;2023-02-12T12:10:57;1.17;;;0.65;;
74495;SDS011;62979;55.720;37.606;2023-02-12T12:13:36;1.15;;;0.38;;
74495;SDS011;62979;55.720;37.606;2023-02-12T12:16:10;2.00;;;0.60;;
74495;SDS011;62979;55.720;37.606;2023-02-12T12:19:01;3.55;;;0.45;;
74495;SDS011;62979;55.720;37.606;2023-02-12T12:21:56;1.90;;;0.77;;
74495;SDS011;62979;55.720;37.606;2023-02-12T12:24:33;1.75;;;0.30;;
74495;SDS011;62979;55.720;37.606;2023-02-12T12:27:11;3.38;;;0.77;;
74495;SDS011;62979;55.720;37.606;2023-02-12T12:30:10;1.95;;;1.73;;
74495;SDS011;62979;55.720;37.606;2023-02-12T12:32:47;1.58;;;1.30;;
74495;SDS011;62979;55.720;37.606;2023-02-12T12:35:21;1.58;;;0.65;;
74495;SDS011;62979;55.720;37.606;2023-02-12T12:38:06;2.25;;;0.30;;
74495;SDS011;62979;55.720;37.606;2023-02-12T12:40:51;1.15;;;0.50;;
74495;SDS011;62979;55.720;37.606;2023-02-12T12:43:33;2.97;;;0.63;;
74495;SDS011;62979;55.720;37.606;2023-02-12T12:46:19;1.00;;;0.52;;
74495;SDS011;62979;55.720;37.606;2023-02-12T12:49:28;2.35;;;0.65;;
74495;SDS011;62979;55.720;37.606;2023-02-12T12:55:15;0.85;;;0.43;;
74495;SDS011;62979;55.720;37.606;2023-02-12T12:58:04;0.45;;;0.45;;
74495;SDS011;62979;55.720;37.606;2023-02-12T13:00:51;1.45;;;0.85;;
74495;SDS011;62979;55.720;37.606;2023-02-12T13:03:49;1.02;;;0.65;;
74495;SDS011;62979;55.720;37.606;2023-02-12T13:06:48;1.13;;;0.57;;
74495;SDS011;62979;55.720;37.606;2023-02-12T13:15:32;2.00;;;0.65;;
74495;SDS011;62979;55.720;37.606;2023-02-12T13:18:16;1.38;;;0.63;;
74495;SDS011;62979;55.720;37.606;2023-02-12T13:21:01;0.98;;;0.30;;
74495;SDS011;62979;55.720;37.606;2023-02-12T13:23:40;1.70;;;0.70;;
74495;SDS011;62979;55.720;37.606;2023-02-12T13:26:18;1.20;;;0.95;;
74495;SDS011;62979;55.720;37.606;2023-02-12T13:28:55;0.98;;;0.60;;
74495;SDS011;62979;55.720;37.606;2023-02-12T13:31:34;2.75;;;1.33;;
74495;SDS011;62979;55.720;37.606;2023-02-12T13:34:10;0.63;;;0.57;;
74495;SDS011;62979;55.720;37.606;2023-02-12T13:36:43;0.82;;;0.65;;
74495;SDS011;62979;55.720;37.606;2023-02-12T13:39:14;0.65;;;0.40;;
74495;SDS011;62979;55.720;37.606;2023-02-12T13:41:56;0.50;;;0.50;;
74495;SDS011;62979;55.720;37.606;2023-02-12T13:44:41;0.90;;;0.50;;
74495;SDS011;62979;55.720;37.606;2023-02-12T13:47:25;0.85;;;0.32;;
74495;SDS011;62979;55.720;37.606;2023-02-12T13:50:04;1.67;;;0.52;;
74495;SDS011;62979;55.720;37.606;2023-02-12T13:52:51;1.67;;;0.95;;
74495;SDS011;62979;55.720;37.606;2023-02-12T13:55:28;1.85;;;0.50;;
74495;SDS011;62979;55.720;37.606;2023-02-12T14:01:36;0.77;;;0.43;;
74495;SDS011;62979;55.720;37.606;2023-02-12T14:04:21;0.30;;;0.10;;
74495;SDS011;62979;55.720;37.606;2023-02-12T14:06:56;1.33;;;0.85;;
74495;SDS011;62979;55.720;37.606;2023-02-12T14:09:30;1.85;;;0.30;;
74495;SDS011;62979;55.720;37.606;2023-02-12T14:12:04;0.93;;;0.45;;
74495;SDS011;62979;55.720;37.606;2023-02-12T14:14:35;0.60;;;0.60;;
74495;SDS011;62979;55.720;37.606;2023-02-12T14:20:22;1.85;;;0.40;;
74495;SDS011;62979;55.720;37.606;2023-02-12T14:25:58;0.93;;;0.35;;
74495;SDS011;62979;55.720;37.606;2023-02-12T14:28:41;3.70;;;0.40;;
74495;SDS011;62979;55.720;37.606;2023-02-12T14:31:21;1.67;;;1.13;;
74495;SDS011;62979;55.720;37.606;2023-02-12T14:37:11;2.30;;;0.73;;
74495;SDS011;62979;55.720;37.606;2023-02-12T14:39:43;1.52;;;0.63;;
74495;SDS011;62979;55.720;37.606;2023-02-12T14:45:28;0.77;;;0.60;;
74495;SDS011;62979;55.720;37.606;2023-02-12T14:47:58;0.95;;;0.25;;
74495;SDS011;62979;55.720;37.606;2023-02-12T14:50:40;0.52;;;0.32;;
74495;SDS011;62979;55.720;37.606;2023-02-12T14:53:20;3.08;;;0.57;;
74495;SDS011;62979;55.720;37.606;2023-02-12T14:55:55;1.27;;;0.45;;
74495;SDS011;62979;55.720;37.606;2023-02-12T14:58:26;1.60;;;0.30;;
74495;SDS011;62979;55.720;37.606;2023-02-12T15:00:55;2.33;;;0.70;;
74495;SDS011;62979;55.720;37.606;2023-02-12T15:03:28;3.95;;;0.75;;
74495;SDS011;62979;55.720;37.606;2023-02-12T15:06:08;0.85;;;0.63;;
74495;SDS011;62979;55.720;37.606;2023-02-12T15:08:43;2.08;;;0.93;;
74495;SDS011;62979;55.720;37.606;2023-02-12T15:11:23;0.85;;;0.43;;
74495;SDS011;62979;55.720;37.606;2023-02-12T15:14:04;0.52;;;0.52;;
74495;SDS011;62979;55.720;37.606;2023-02-12T15:16:43;1.15;;;0.20;;
74495;SDS011;62979;55.720;37.606;2023-02-12T15:19:23;1.70;;;0.88;;
74495;SDS011;62979;55.720;37.606;2023-02-12T15:22:13;1.88;;;0.55;;
74495;SDS011;62979;55.720;37.606;2023-02-12T15:24:47;2.53;;;0.63;;
74495;SDS011;62979;55.720;37.606;2023-02-12T15:27:14;1.25;;;0.50;;
74495;SDS011;62979;55.720;37.606;2023-02-12T15:29:44;3.50;;;0.68;;
74495;SDS011;62979;55.720;37.606;2023-02-12T15:32:17;0.60;;;0.43;;
74495;SDS011;62979;55.720;37.606;2023-02-12T15:34:50;2.95;;;0.60;;
74495;SDS011;62979;55.720;37.606;2023-02-12T15:37:20;1.05;;;0.57;;
74495;SDS011;62979;55.720;37.606;2023-02-12T15:39:52;2.45;;;0.73;;
74495;SDS011;62979;55.720;37.606;2023-02-12T15:42:26;1.48;;;0.50;;
74495;SDS011;62979;55.720;37.606;2023-02-12T15:45:10;2.38;;;0.60;;
74495;SDS011;62979;55.720;37.606;2023-02-12T15:47:46;1.90;;;1.25;;
74495;SDS011;62979;55.720;37.606;2023-02-12T15:50:25;1.40;;;0.57;;
74495;SDS011;62979;55.720;37.606;2023-02-12T15:55:22;0.22;;;0.20;;
74495;SDS011;62979;55.720;37.606;2023-02-12T15:57:53;1.27;;;0.57;;